Time;durP1;ratioP1;P1;durP2;ratioP2;P2;SDS_P1;SDS_P2;PMS_P1;PMS_P2;Temp;Humidity;BMP_temperature;BMP_pressure;BME280_temperature;BME280_humidity;BME280_pressure;Samples;Min_cycle;Max_cycle;Signal;HPM_P1;HPM_P2
2023/06/17 00:03:28;;;;;;;5.80;3.50;;;18.70;87.10;;;19.14;78.09;100974.44;5150259;28;20054;-70
2023/06/17 00:25:31;;;;;;;6.53;3.85;;;18.30;90.80;;;18.75;80.11;100975.16;5515672;23;20054;-78
2023/06/17 00:28:04;;;;;;;6.85;3.75;;;18.30;91.30;;;18.67;80.39;100972.50;5183520;28;20053;-79
2023/06/17 00:30:36;;;;;;;7.22;4.47;;;18.20;91.30;;;18.63;80.80;100977.72;5185324;28;20046;-81
2023/06/17 00:33:08;;;;;;;7.20;3.78;;;18.20;91.60;;;18.55;81.18;100977.69;5189974;28;20511;-79
2023/06/17 00:35:40;;;;;;;5.13;3.30;;;18.10;91.80;;;18.50;81.65;100963.56;5200393;28;20141;-80
2023/06/17 00:38:12;;;;;;;6.38;3.50;;;18.10;92.20;;;18.47;82.26;100963.56;5205716;23;20042;-83
2023/06/17 00:40:45;;;;;;;5.45;3.67;;;18.00;92.60;;;18.44;82.29;100969.69;5150032;28;20046;-83
2023/06/17 00:43:17;;;;;;;5.38;3.60;;;18.00;92.90;;;18.43;82.30;100967.06;5159508;28;20046;-81
2023/06/17 00:45:49;;;;;;;5.82;3.60;;;18.00;93.00;;;18.43;81.55;100967.06;5165456;28;20530;-82
2023/06/17 00:48:23;;;;;;;5.82;3.75;;;18.00;92.80;;;18.44;81.46;100969.69;5160899;28;20415;-82
2023/06/17 00:51:01;;;;;;;5.57;3.28;;;18.00;92.90;;;18.44;81.48;100974.09;5161823;28;20061;-83
2023/06/17 00:53:34;;;;;;;5.82;3.85;;;18.00;93.00;;;18.42;81.41;100973.22;5158614;28;20046;-82
2023/06/17 00:56:07;;;;;;;6.78;4.07;;;18.00;93.00;;;18.39;81.55;100973.22;5151068;28;20143;-84
2023/06/17 00:58:40;;;;;;;6.18;3.92;;;17.90;93.10;;;18.36;81.71;100970.53;5151316;28;20138;-81
2023/06/17 01:01:12;;;;;;;6.43;3.67;;;17.90;93.30;;;18.31;81.84;100965.22;5160122;28;20385;-81
2023/06/17 01:03:45;;;;;;;6.35;3.83;;;17.90;93.40;;;18.25;82.04;100966.94;5161983;28;20054;-82
2023/06/17 01:06:26;;;;;;;6.25;3.75;;;17.80;93.60;;;18.21;82.44;100967.81;5159141;28;20042;-83
2023/06/17 01:09:05;;;;;;;5.63;3.75;;;17.80;93.90;;;18.17;82.70;100970.44;5148148;28;20069;-82
2023/06/17 01:11:40;;;;;;;6.65;3.50;;;17.70;94.10;;;18.15;82.95;100966.03;5170050;28;20050;-83
2023/06/17 01:14:15;;;;;;;6.97;3.75;;;17.70;94.20;;;18.11;83.29;100975.66;5173315;28;20068;-82
2023/06/17 01:16:50;;;;;;;6.03;3.75;;;17.70;94.50;;;18.07;83.52;100958.06;5165610;28;20043;-82
2023/06/17 01:19:26;;;;;;;5.80;3.92;;;17.60;94.70;;;18.02;83.59;100962.41;5163116;28;20046;-83
2023/06/17 01:22:01;;;;;;;6.05;3.35;;;17.60;94.80;;;17.98;83.85;100951.81;5172653;28;20129;-81
2023/06/17 01:24:36;;;;;;;5.60;3.53;;;17.50;95.00;;;17.94;84.09;100948.31;5157679;28;20074;-82
2023/06/17 01:27:08;;;;;;;6.57;3.95;;;17.50;95.10;;;17.92;84.20;100950.03;5156001;28;20038;-82
2023/06/17 01:29:41;;;;;;;6.70;3.53;;;17.50;95.30;;;17.95;83.69;100957.09;5157593;28;20050;-82
2023/06/17 01:32:13;;;;;;;6.60;3.60;;;17.50;95.20;;;17.95;83.27;100947.44;5163333;28;20137;-83
2023/06/17 01:34:52;;;;;;;8.02;3.67;;;17.50;95.10;;;17.95;82.86;100949.19;5173421;28;20054;-83
2023/06/17 01:37:30;;;;;;;6.32;3.88;;;17.50;94.90;;;17.89;82.40;100947.38;5174673;28;20028;-87
2023/06/17 01:40:07;;;;;;;7.55;4.30;;;17.50;94.70;;;17.86;82.42;100953.50;5165867;28;20735;-83
2023/06/17 01:42:45;;;;;;;5.97;3.45;;;17.50;94.80;;;17.83;82.30;100945.56;5169088;28;20043;-82
2023/06/17 01:45:20;;;;;;;5.97;4.20;;;17.40;94.70;;;17.79;82.86;100948.16;5151261;28;20043;-82
2023/06/17 01:47:52;;;;;;;6.97;4.05;;;17.40;95.00;;;17.75;83.35;100951.66;5178869;28;20518;-81
2023/06/17 01:50:24;;;;;;;4.97;3.63;;;17.30;95.20;;;17.69;83.80;100943.69;5165325;28;20058;-82
2023/06/17 01:52:56;;;;;;;7.40;3.95;;;17.30;95.50;;;17.65;84.19;100953.31;5151677;28;20145;-83
2023/06/17 01:55:31;;;;;;;7.13;4.10;;;17.20;95.60;;;17.61;84.45;100941.88;5155794;28;20053;-81
2023/06/17 01:58:03;;;;;;;5.57;3.88;;;17.20;95.90;;;17.57;84.70;100947.97;5155227;28;20467;-83
2023/06/17 02:00:36;;;;;;;6.55;3.65;;;17.10;96.30;;;17.49;85.17;100943.50;5149395;28;20459;-82
2023/06/17 02:03:08;;;;;;;6.97;4.15;;;17.10;96.50;;;17.44;85.44;100948.72;5148648;28;20106;-82
2023/06/17 02:05:40;;;;;;;6.25;3.72;;;17.00;96.50;;;17.40;85.86;100940.78;5175427;28;20057;-81
2023/06/17 02:08:14;;;;;;;5.35;3.80;;;17.00;96.70;;;17.34;86.46;100946.84;5177920;28;20048;-82
2023/06/17 02:10:48;;;;;;;7.03;4.05;;;17.00;97.00;;;17.29;86.87;100943.31;5151725;28;20130;-80
2023/06/17 02:13:20;;;;;;;6.22;4.05;;;16.90;97.30;;;17.25;87.20;100949.41;5159859;28;20046;-81
2023/06/17 02:15:52;;;;;;;6.43;3.67;;;16.90;97.60;;;17.23;87.48;100949.41;5151619;28;20125;-82
2023/06/17 02:18:24;;;;;;;7.63;4.03;;;16.80;97.70;;;17.21;87.49;100939.69;5162252;28;20097;-82
2023/06/17 02:20:56;;;;;;;6.32;3.72;;;16.80;97.90;;;17.17;88.07;100938.81;5160777;28;20043;-82
2023/06/17 02:23:29;;;;;;;6.90;4.03;;;16.80;98.00;;;17.14;87.95;100940.50;5176680;28;20042;-82
2023/06/17 02:26:03;;;;;;;8.32;4.28;;;16.80;98.20;;;17.12;88.29;100944.91;5145737;28;20050;-83
2023/06/17 02:28:35;;;;;;;6.85;3.85;;;16.70;98.20;;;17.11;88.05;100937.88;5170851;28;20050;-82
2023/06/17 02:31:07;;;;;;;8.25;4.70;;;16.70;98.30;;;17.09;88.17;100940.50;5171747;28;20050;-85
2023/06/17 02:33:39;;;;;;;6.13;4.07;;;16.70;98.40;;;17.07;88.48;100936.94;5156008;28;20054;-81
2023/06/17 02:36:14;;;;;;;6.45;4.00;;;16.70;98.50;;;17.05;88.69;100939.56;5163842;28;20054;-82
2023/06/17 02:38:46;;;;;;;6.88;4.05;;;16.70;99.00;;;17.01;88.76;100937.75;5162612;28;20073;-83
2023/06/17 02:41:20;;;;;;;7.95;4.45;;;16.60;98.70;;;16.98;88.97;100932.47;5151304;28;20047;-81
2023/06/17 02:43:52;;;;;;;7.63;4.53;;;16.60;98.90;;;16.98;89.38;100942.13;5159519;28;20516;-81
2023/06/17 02:46:26;;;;;;;6.93;3.92;;;16.60;99.10;;;16.94;89.30;100935.91;5147939;28;20093;-82
2023/06/17 02:48:58;;;;;;;7.28;4.00;;;16.50;99.10;;;16.88;89.76;100929.69;5155384;28;20420;-82
2023/06/17 02:51:30;;;;;;;7.75;4.55;;;16.50;99.40;;;16.87;90.03;100933.19;5175853;28;20050;-82
2023/06/17 02:54:02;;;;;;;7.22;4.35;;;16.50;99.60;;;16.83;90.32;100932.31;5144271;28;20066;-80
2023/06/17 02:56:36;;;;;;;8.07;4.72;;;16.50;99.70;;;16.82;90.63;100935.78;5144663;28;20047;-82
2023/06/17 02:59:08;;;;;;;6.57;4.28;;;16.40;99.90;;;16.79;90.76;100943.66;5155389;28;20046;-82
2023/06/17 03:01:42;;;;;;;7.20;4.07;;;16.40;99.90;;;16.76;90.60;100936.63;5156618;28;20381;-82
2023/06/17 03:04:14;;;;;;;7.45;4.43;;;16.40;99.90;;;16.75;90.49;100932.19;5157119;28;20026;-83
2023/06/17 03:06:46;;;;;;;6.78;4.50;;;16.40;99.90;;;16.77;90.08;100940.13;5165585;28;20050;-83
2023/06/17 03:09:19;;;;;;;8.55;4.60;;;16.40;99.90;;;16.79;89.66;100941.03;5155418;28;20035;-82
2023/06/17 03:11:53;;;;;;;6.88;4.07;;;16.40;99.90;;;16.77;89.44;100938.38;5152296;28;20121;-82
2023/06/17 03:14:26;;;;;;;6.28;4.15;;;16.40;99.60;;;16.73;89.26;100941.81;5164228;28;20412;-82
2023/06/17 03:17:00;;;;;;;6.28;3.92;;;16.40;99.60;;;16.70;89.33;100948.81;5162592;28;20129;-82
2023/06/17 03:19:33;;;;;;;8.05;4.72;;;16.40;99.60;;;16.71;89.13;100947.94;5163907;28;20110;-82
2023/06/17 03:22:06;;;;;;;6.65;4.45;;;16.30;99.60;;;16.68;89.19;100946.09;5160856;28;20054;-82
2023/06/17 03:24:41;;;;;;;7.97;4.32;;;16.30;99.60;;;16.63;89.38;100939.94;5157794;28;20046;-82
2023/06/17 03:27:16;;;;;;;5.55;3.65;;;16.30;99.70;;;16.57;89.56;100938.97;5155578;28;20045;-82
2023/06/17 03:29:49;;;;;;;5.55;3.40;;;16.20;99.80;;;16.54;90.23;100940.69;5162871;28;20061;-86
2023/06/17 03:32:22;;;;;;;7.07;4.13;;;16.30;99.90;;;16.50;90.48;100936.25;5163326;28;20507;-84
2023/06/17 03:34:54;;;;;;;7.65;4.35;;;16.20;99.90;;;16.47;90.92;100936.19;5167467;28;20042;-85
2023/06/17 03:37:27;;;;;;;5.97;3.88;;;16.10;99.90;;;16.45;91.44;100935.31;5155846;28;20042;-82
2023/06/17 03:39:59;;;;;;;7.72;4.10;;;16.10;99.90;;;16.43;91.24;100936.13;5158519;28;20047;-83
2023/06/17 03:42:35;;;;;;;6.70;3.97;;;16.10;99.90;;;16.39;91.14;100927.34;5142884;28;20061;-82
2023/06/17 03:45:09;;;;;;;6.65;4.18;;;16.00;99.90;;;16.39;91.30;100929.97;5160878;28;20114;-83
2023/06/17 03:47:41;;;;;;;7.20;4.07;;;16.00;99.90;;;16.38;91.36;100938.72;5153334;28;20053;-83
2023/06/17 03:50:13;;;;;;;6.38;4.03;;;16.00;99.90;;;16.35;91.47;100928.16;5157008;28;20078;-81
2023/06/17 03:52:46;;;;;;;6.15;3.40;;;16.00;99.90;;;16.41;91.74;100922.09;5155424;28;20097;-81
2023/06/17 03:55:19;;;;;;;7.65;4.03;;;16.00;99.90;;;16.39;91.87;100921.19;5160690;28;20066;-83
2023/06/17 03:57:53;;;;;;;6.78;4.40;;;16.00;99.90;;;16.39;92.16;100927.34;5176551;28;20074;-83
2023/06/17 04:00:26;;;;;;;6.50;4.10;;;16.00;99.90;;;16.40;92.43;100929.09;5157041;28;20058;-84
2023/06/17 04:02:58;;;;;;;6.30;4.03;;;16.00;99.90;;;16.42;92.57;100930.00;5158093;28;20073;-81
2023/06/17 04:05:37;;;;;;;6.47;3.83;;;16.10;99.90;;;16.41;92.53;100922.97;5150073;28;20046;-81
2023/06/17 04:08:12;;;;;;;7.35;4.15;;;16.10;99.90;;;16.44;93.13;100924.78;5161126;28;20053;-83
2023/06/17 04:10:44;;;;;;;6.30;3.63;;;16.10;99.90;;;16.46;92.55;100929.19;5145898;28;20057;-81
2023/06/17 04:13:18;;;;;;;7.90;4.22;;;16.10;99.90;;;16.49;92.02;100923.94;5160599;28;20042;-81
2023/06/17 04:15:50;;;;;;;6.53;3.65;;;16.10;99.90;;;16.53;91.47;100922.25;5144657;28;20046;-81
2023/06/17 04:18:22;;;;;;;6.63;3.90;;;16.20;99.90;;;16.58;91.58;100932.84;5152602;28;20114;-82
2023/06/17 04:20:56;;;;;;;7.07;4.63;;;16.20;99.90;;;16.62;91.39;100932.00;5159390;28;20397;-82
2023/06/17 04:23:31;;;;;;;7.00;3.80;;;16.20;99.90;;;16.62;91.41;100927.59;5152229;28;20133;-81
2023/06/17 04:26:04;;;;;;;6.50;3.90;;;16.30;99.90;;;16.65;91.66;100934.69;5159869;28;20066;-83
2023/06/17 04:28:38;;;;;;;6.40;3.75;;;16.30;99.90;;;16.68;91.33;100935.59;5153135;28;20046;-84
2023/06/17 04:31:10;;;;;;;7.95;4.18;;;16.30;99.90;;;16.70;90.98;100931.28;5147351;28;20058;-82
2023/06/17 04:33:44;;;;;;;7.22;4.43;;;16.40;99.90;;;16.73;90.13;100930.41;5146758;28;20601;-82
2023/06/17 04:36:17;;;;;;;8.15;4.65;;;16.40;99.90;;;16.77;89.88;100926.97;5156180;28;20437;-80
2023/06/17 04:38:51;;;;;;;7.60;3.90;;;16.50;99.90;;;16.81;89.64;100924.38;5154648;28;20114;-82
2023/06/17 04:41:23;;;;;;;7.03;4.20;;;16.50;99.90;;;16.88;89.76;100925.31;5146932;28;20472;-82
2023/06/17 04:43:57;;;;;;;7.15;4.50;;;16.60;99.90;;;16.95;89.73;100923.63;5155691;28;20134;-82
2023/06/17 04:46:30;;;;;;;7.97;4.75;;;16.60;99.90;;;17.03;89.39;100925.50;5151053;28;20057;-82
2023/06/17 04:49:03;;;;;;;8.23;4.22;;;16.70;99.90;;;17.18;89.00;100923.88;5178079;28;20046;-81
2023/06/17 04:51:38;;;;;;;9.00;5.10;;;16.80;99.90;;;17.42;88.72;100929.41;5157515;28;20053;-82
2023/06/17 04:54:10;;;;;;;8.82;4.75;;;17.00;99.90;;;17.72;87.49;100936.69;5161956;28;20066;-81
2023/06/17 04:56:43;;;;;;;9.48;5.10;;;17.30;99.50;;;18.01;86.23;100931.66;5163229;28;20038;-83
2023/06/17 04:59:19;;;;;;;7.43;5.20;;;17.60;99.00;;;18.34;84.37;100933.59;5164087;28;20034;-82
2023/06/17 05:01:51;;;;;;;8.27;4.95;;;17.90;98.10;;;18.62;82.54;100931.97;5170005;28;20049;-84
2023/06/17 05:04:23;;;;;;;9.32;5.57;;;18.20;97.30;;;18.83;81.39;100931.19;5161719;28;20042;-82
2023/06/17 05:06:55;;;;;;;8.45;4.82;;;18.40;96.60;;;19.05;80.10;100926.84;5184514;28;20043;-84
2023/06/17 05:09:28;;;;;;;9.88;4.72;;;18.60;95.90;;;19.17;79.10;100928.63;5160372;28;20050;-86
2023/06/17 05:12:00;;;;;;;10.07;5.07;;;18.80;95.30;;;19.31;78.85;100933.97;5159631;28;20130;-85
2023/06/17 05:14:34;;;;;;;10.10;5.63;;;18.90;95.10;;;19.48;78.04;100940.13;5166672;28;20058;-83
2023/06/17 05:17:07;;;;;;;9.05;4.63;;;19.00;94.70;;;19.61;77.59;100939.28;5166531;28;20050;-83
2023/06/17 05:19:40;;;;;;;8.68;4.95;;;19.20;94.40;;;19.77;76.87;100938.41;5166801;28;20046;-82
2023/06/17 05:22:12;;;;;;;10.23;4.85;;;19.30;94.00;;;19.84;75.83;100941.03;5166736;28;20052;-84
2023/06/17 05:24:44;;;;;;;9.52;5.00;;;19.40;93.60;;;19.90;75.55;100951.63;5158380;28;20050;-82
2023/06/17 05:27:17;;;;;;;9.55;5.13;;;19.40;93.30;;;19.88;75.63;100943.66;5172411;28;20106;-82
2023/06/17 05:29:52;;;;;;;9.13;4.65;;;19.40;93.20;;;19.98;75.49;100941.91;5157841;28;20056;-83
2023/06/17 05:32:25;;;;;;;7.55;4.70;;;19.50;93.30;;;20.07;75.28;100944.53;5162771;28;20034;-84
2023/06/17 05:34:57;;;;;;;6.68;4.32;;;19.50;93.10;;;20.30;74.46;100939.19;5163092;28;20046;-83
2023/06/17 05:37:29;;;;;;;9.23;4.47;;;19.70;92.90;;;20.45;73.33;100943.59;5166420;28;20046;-86
2023/06/17 05:40:02;;;;;;;7.40;4.47;;;19.80;92.30;;;20.63;72.32;100946.19;5167930;28;20058;-83
2023/06/17 05:42:34;;;;;;;7.15;4.65;;;20.00;91.90;;;20.80;70.70;100944.34;5152370;28;20690;-83
2023/06/17 05:45:09;;;;;;;6.35;4.07;;;20.20;91.10;;;20.95;70.62;100953.09;5174771;28;20118;-81
2023/06/17 05:47:41;;;;;;;;;;;20.30;91.00;;;21.14;70.10;100949.47;5147764;28;20062;-82
2023/06/17 05:50:13;;;;;;;9.02;4.72;;;20.50;90.70;;;21.42;69.93;100950.19;5160364;28;19932;-85
2023/06/17 05:52:47;;;;;;;9.10;4.75;;;20.70;90.60;;;21.65;69.11;100955.31;5155147;28;20042;-82
2023/06/17 05:55:19;;;;;;;7.60;4.63;;;20.90;90.20;;;21.81;67.78;100961.38;5176929;28;20038;-85
2023/06/17 05:57:52;;;;;;;8.38;4.60;;;21.10;89.10;;;21.94;66.18;100960.34;5157308;28;20038;-82
2023/06/17 06:00:26;;;;;;;8.75;4.88;;;21.20;87.00;;;22.09;65.87;100956.69;5152563;28;20584;-82
2023/06/17 06:03:00;;;;;;;7.88;4.60;;;21.40;86.60;;;22.16;65.01;100961.06;5153014;28;20050;-82
2023/06/17 06:05:33;;;;;;;5.97;4.28;;;21.50;85.50;;;22.23;65.00;100953.91;5131834;28;20057;-79
2023/06/17 06:08:06;;;;;;;7.03;4.90;;;21.60;85.20;;;22.36;64.71;100961.72;5132162;28;20043;-75
2023/06/17 06:10:37;;;;;;;7.07;4.53;;;21.70;84.70;;;22.58;64.08;100959.72;5162149;28;20046;-78
2023/06/17 06:13:10;;;;;;;6.85;4.40;;;21.80;83.90;;;22.73;63.64;100963.94;5130597;28;20054;-78
2023/06/17 06:15:43;;;;;;;8.50;4.45;;;22.00;83.40;;;22.90;62.49;100962.00;5138784;28;20078;-79
2023/06/17 06:18:16;;;;;;;8.23;4.47;;;22.20;82.30;;;22.99;62.09;100961.88;5130232;28;20070;-79
2023/06/17 06:20:48;;;;;;;8.90;4.53;;;22.30;81.40;;;23.08;61.94;100959.97;5145267;28;20038;-79
2023/06/17 06:23:20;;;;;;;6.40;4.03;;;22.30;81.10;;;23.18;61.94;100964.28;5139242;28;20049;-79
2023/06/17 06:25:53;;;;;;;7.72;4.15;;;22.40;80.80;;;23.30;61.85;100966.75;5130339;28;20039;-78
2023/06/17 06:28:25;;;;;;;6.78;3.95;;;22.60;80.60;;;23.46;60.90;100956.75;5140790;28;20512;-80
2023/06/17 06:30:58;;;;;;;6.72;3.75;;;22.70;79.70;;;23.68;60.79;100963.53;5134426;28;20054;-79
2023/06/17 06:33:31;;;;;;;8.57;4.70;;;22.90;79.50;;;23.91;60.09;100959.59;5158646;28;20042;-79
2023/06/17 06:36:03;;;;;;;6.65;4.30;;;23.10;78.90;;;24.10;59.26;100967.22;5152268;28;20057;-79
2023/06/17 06:38:37;;;;;;;7.80;4.53;;;23.30;78.00;;;24.29;58.81;100958.91;5136760;28;20049;-79
2023/06/17 06:41:09;;;;;;;7.43;4.57;;;23.50;77.10;;;24.50;58.69;100965.63;5167377;28;20041;-79
2023/06/17 06:43:47;;;;;;;6.28;3.97;;;23.70;76.90;;;24.71;57.99;100969.63;5130811;28;20078;-79
2023/06/17 06:46:25;;;;;;;7.50;4.85;;;23.80;76.00;;;24.96;56.67;100972.66;5137561;28;20452;-79
2023/06/17 06:48:59;;;;;;;7.30;4.22;;;24.10;74.70;;;25.16;55.95;100976.66;5130485;28;20050;-79
2023/06/17 06:51:33;;;;;;;;;;;24.30;73.70;;;25.25;56.14;100972.94;5140237;28;20134;-78
2023/06/17 06:54:06;;;;;;;8.48;4.43;;;24.40;73.40;;;25.32;55.38;100971.00;5139720;28;20024;-80
2023/06/17 06:56:38;;;;;;;5.65;3.95;;;24.50;72.40;;;25.34;55.64;100972.72;5150373;28;20047;-84
2023/06/17 06:59:10;;;;;;;7.05;3.92;;;24.50;72.20;;;25.29;55.70;100963.94;5155117;28;20045;-83
2023/06/17 07:01:44;;;;;;;6.68;3.95;;;24.50;72.20;;;25.34;56.06;100967.38;5150373;28;20528;-83
2023/06/17 07:04:17;;;;;;;6.13;3.75;;;24.50;72.20;;;25.41;55.81;100974.31;5176243;23;20061;-59
2023/06/17 07:06:49;;;;;;;7.53;4.10;;;24.60;72.20;;;25.46;56.05;100974.22;5128346;28;20113;-58
2023/06/17 07:09:26;;;;;;;6.68;4.25;;;24.60;72.40;;;25.44;56.25;100978.72;5126957;28;20046;-59
2023/06/17 07:11:58;;;;;;;6.72;4.20;;;24.60;72.40;;;25.53;56.47;100978.50;5144482;28;20053;-58
2023/06/17 07:14:31;;;;;;;7.03;3.80;;;24.70;72.50;;;25.63;55.87;100976.50;5130033;28;20043;-59
2023/06/17 07:17:05;;;;;;;5.68;3.53;;;24.80;72.00;;;25.65;55.27;100971.97;5106459;28;20596;-59
2023/06/17 07:19:37;;;;;;;6.45;3.90;;;24.80;71.30;;;25.70;55.01;100976.28;5106253;29;20050;-59
2023/06/17 07:22:10;;;;;;;5.90;3.80;;;24.80;71.10;;;25.81;55.36;100977.84;5121172;28;20134;-69
2023/06/17 07:24:43;;;;;;;5.72;3.70;;;24.90;71.20;;;25.84;54.83;100981.31;5122349;28;20043;-69
2023/06/17 07:27:16;;;;;;;8.20;4.22;;;24.90;70.80;;;25.79;54.90;100972.53;5101449;28;20637;-69
2023/06/17 07:29:49;;;;;;;5.85;3.92;;;24.90;70.50;;;25.86;54.97;100975.94;5101460;29;20579;-69
2023/06/17 07:32:22;;;;;;;5.72;4.13;;;24.90;70.70;;;25.92;54.78;100971.31;5089604;28;20520;-69
2023/06/17 07:34:56;;;;;;;5.93;3.70;;;24.90;70.30;;;26.00;54.46;100973.78;5090148;29;20098;-69
2023/06/17 07:37:28;;;;;;;6.88;3.83;;;25.00;70.20;;;26.01;54.53;100980.00;5121695;28;20105;-69
2023/06/17 07:40:06;;;;;;;6.10;3.85;;;25.00;70.20;;;26.08;54.72;100969.13;5090441;28;20210;-69
2023/06/17 07:42:38;;;;;;;7.35;4.00;;;25.00;70.40;;;26.21;54.66;100967.88;5106816;29;20150;-69
2023/06/17 07:45:12;;;;;;;5.72;3.63;;;25.10;70.40;;;26.42;54.08;100976.25;5123178;28;20043;-69
2023/06/17 07:47:46;;;;;;;6.22;3.80;;;25.30;70.10;;;26.61;52.85;100974.81;5089721;29;20043;-69
2023/06/17 07:50:18;;;;;;;6.60;3.88;;;25.40;68.90;;;26.79;52.47;100976.94;5089750;28;20487;-69
2023/06/17 07:52:52;;;;;;;5.18;3.55;;;25.60;68.40;;;26.93;52.32;100965.84;5123442;28;20416;-69
2023/06/17 07:55:25;;;;;;;5.93;3.78;;;25.70;68.20;;;27.09;51.61;100968.09;5123228;28;20050;-69
2023/06/17 07:57:57;;;;;;;6.07;3.67;;;25.80;68.20;;;27.25;50.77;100964.00;5105697;29;20039;-69
2023/06/17 08:00:29;;;;;;;5.82;3.92;;;26.00;66.80;;;27.52;50.94;100957.78;5105057;28;20501;-66
2023/06/17 08:03:03;;;;;;;6.18;4.15;;;26.20;66.80;;;27.82;49.82;100966.59;5117257;28;20119;-72
2023/06/17 08:05:37;;;;;;;7.70;4.18;;;26.40;66.20;;;28.15;49.03;100968.19;5097177;29;20051;-68
2023/06/17 08:08:09;;;;;;;5.95;3.70;;;26.60;65.40;;;28.56;48.98;100962.25;5089533;28;20047;-68
2023/06/17 08:10:42;;;;;;;5.35;3.50;;;26.80;65.40;;;29.07;48.36;100960.31;5118897;28;20107;-68
2023/06/17 08:13:14;;;;;;;6.13;3.72;;;27.10;64.90;;;29.66;47.10;100965.09;5089806;28;20457;-67
2023/06/17 08:15:46;;;;;;;6.63;4.13;;;27.50;64.50;;;30.22;45.83;100965.41;5100193;29;20048;-69
2023/06/17 08:18:20;;;;;;;8.00;4.40;;;27.90;63.60;;;30.71;45.16;100962.31;5116905;28;20051;-70
2023/06/17 08:20:52;;;;;;;5.53;3.45;;;28.10;63.00;;;31.30;44.15;100961.38;5104174;29;20432;-69
2023/06/17 08:23:25;;;;;;;7.50;3.97;;;28.50;62.00;;;31.90;42.86;100953.88;5105023;28;20093;-69
2023/06/17 08:25:57;;;;;;;5.22;3.75;;;28.80;60.90;;;32.57;41.98;100955.72;5089666;29;20043;-70
2023/06/17 08:28:29;;;;;;;5.78;3.25;;;29.20;60.50;;;33.29;40.54;100953.56;5088963;28;20114;-70
2023/06/17 08:31:01;;;;;;;5.45;3.30;;;29.60;59.50;;;34.00;39.92;100951.19;5122680;28;20531;-70
2023/06/17 08:33:35;;;;;;;4.47;3.08;;;30.00;59.10;;;35.04;37.99;100953.69;5122698;28;20082;-70
2023/06/17 08:36:07;;;;;;;;;;;30.40;57.80;;;35.92;36.06;100951.47;5122851;28;20505;-70
2023/06/17 08:38:40;;;;;;;4.50;3.30;;;31.00;55.70;;;36.81;34.36;100943.38;5105245;29;19926;-70
2023/06/17 08:41:12;;;;;;;4.97;3.53;;;31.60;54.90;;;37.82;33.56;100945.84;5122560;28;20567;-70
2023/06/17 08:43:47;;;;;;;5.30;3.15;;;32.50;53.40;;;38.61;31.57;100946.91;5105486;29;20097;-70
2023/06/17 08:46:22;;;;;;;5.03;2.80;;;33.30;51.20;;;39.36;30.42;100938.91;5122291;28;20339;-70
2023/06/17 08:48:58;;;;;;;4.30;3.10;;;34.10;49.40;;;39.51;29.96;100937.59;5121330;28;20050;-70
2023/06/17 08:51:30;;;;;;;3.78;3.05;;;34.60;48.40;;;39.75;30.15;100939.25;5105146;28;20054;-70
2023/06/17 08:54:06;;;;;;;4.13;2.88;;;34.90;48.10;;;39.94;29.37;100938.53;5122499;28;20413;-70
2023/06/17 08:56:38;;;;;;;4.75;2.72;;;35.20;47.30;;;40.03;28.97;100932.28;5105627;28;20047;-70
2023/06/17 08:59:11;;;;;;;3.42;2.80;;;35.30;46.40;;;40.39;28.47;100931.81;5105059;28;20094;-70
2023/06/17 09:01:44;;;;;;;4.97;2.83;;;35.60;46.10;;;40.71;28.43;100932.69;5123081;28;20048;-70
2023/06/17 09:04:21;;;;;;;3.13;2.63;;;35.90;45.30;;;40.89;27.56;100926.47;5088734;28;20052;-70
2023/06/17 09:06:53;;;;;;;4.63;3.20;;;36.10;44.70;;;40.78;26.55;100917.47;5121846;28;20058;-70
2023/06/17 09:09:26;;;;;;;3.75;2.60;;;36.10;43.10;;;40.78;26.47;100917.47;5121086;28;20051;-70
2023/06/17 09:12:05;;;;;;;5.40;2.67;;;36.20;42.90;;;40.75;26.47;100924.06;5123078;28;20126;-70
2023/06/17 09:14:37;;;;;;;3.92;2.95;;;36.30;42.70;;;40.75;26.27;100923.19;5122311;28;20533;-70
2023/06/17 09:17:09;;;;;;;4.50;2.80;;;36.30;42.60;;;40.95;26.79;100930.47;5088519;28;20149;-70
2023/06/17 09:19:42;;;;;;;3.55;2.60;;;36.50;42.80;;;40.96;26.18;100924.03;5121941;28;20036;-70
2023/06/17 09:22:17;;;;;;;3.95;2.80;;;36.50;42.40;;;40.69;25.95;100916.41;5122402;28;20485;-70
2023/06/17 09:24:49;;;;;;;5.45;2.78;;;36.50;42.10;;;40.40;27.12;100922.63;5122034;28;20048;-70
2023/06/17 09:27:22;;;;;;;4.38;2.97;;;36.40;42.60;;;40.01;27.23;100917.91;5104408;28;20035;-70
2023/06/17 09:30:09;;;;;;;3.83;2.80;;;36.30;42.70;;;39.34;27.35;100919.09;5105024;29;20063;-70
2023/06/17 09:32:44;;;;;;;4.28;2.60;;;36.00;42.50;;;38.74;27.74;100917.72;5114976;28;20356;-70
2023/06/17 09:35:18;;;;;;;3.95;2.70;;;35.70;42.50;;;38.14;28.21;100922.44;5121928;28;20405;-69
2023/06/17 09:37:52;;;;;;;3.30;2.70;;;35.50;42.60;;;37.40;28.96;100916.38;5092312;29;20094;-69
2023/06/17 09:40:29;;;;;;;3.65;2.63;;;35.20;43.00;;;36.39;29.85;100912.06;5125871;28;20043;-69
2023/06/17 09:43:02;;;;;;;3.72;2.70;;;34.60;43.20;;;35.25;31.07;100910.78;5125615;28;20043;-69
2023/06/17 09:45:35;;;;;;;5.07;3.00;;;33.80;43.90;;;34.56;31.76;100898.16;5125805;28;20073;-69
2023/06/17 09:48:09;;;;;;;4.15;2.88;;;33.20;44.60;;;34.12;32.48;100904.47;5125218;28;20043;-69
2023/06/17 09:50:43;;;;;;;4.22;3.03;;;32.80;45.70;;;33.68;33.39;100894.50;5119089;28;20043;-69
2023/06/17 09:53:16;;;;;;;4.68;3.38;;;32.40;45.60;;;33.33;33.78;100901.09;5125392;28;20497;-69
2023/06/17 09:55:49;;;;;;;4.18;3.15;;;32.10;45.90;;;32.90;34.21;100906.25;5108233;29;20493;-69
2023/06/17 09:58:22;;;;;;;4.50;3.15;;;31.70;46.10;;;32.59;34.92;100897.13;5108216;28;20039;-69
2023/06/17 10:00:56;;;;;;;4.40;2.97;;;31.40;46.60;;;32.50;35.45;100892.25;5125448;28;20405;-69
2023/06/17 10:03:28;;;;;;;4.63;3.10;;;31.30;47.20;;;32.53;35.32;100894.78;5092112;28;20055;-69
2023/06/17 10:06:08;;;;;;;4.68;2.97;;;31.20;47.30;;;32.51;35.07;100899.41;5123486;28;20043;-69
2023/06/17 10:08:44;;;;;;;6.07;3.40;;;31.20;46.90;;;32.47;35.81;100897.81;5107482;29;20504;-69
2023/06/17 10:11:20;;;;;;;6.03;3.42;;;31.20;47.60;;;32.31;35.46;100902.28;5107881;28;20047;-69
2023/06/17 10:14:00;;;;;;;6.07;3.33;;;31.10;47.20;;;32.07;35.20;100905.31;5125218;28;20043;-69
2023/06/17 10:16:34;;;;;;;;;;;31.00;47.00;;;31.87;36.18;100902.81;5105591;28;20047;-69
2023/06/17 10:19:09;;;;;;;4.85;3.50;;;30.80;47.60;;;31.96;36.83;100898.78;5119210;28;20355;-65
2023/06/17 10:21:48;;;;;;;4.07;3.05;;;30.80;48.30;;;31.92;36.46;100898.06;5121459;28;20049;-65
2023/06/17 10:24:21;;;;;;;4.53;3.50;;;30.80;47.90;;;31.98;36.39;100900.44;5104504;28;20043;-68
2023/06/17 10:26:54;;;;;;;6.05;3.65;;;30.80;48.10;;;32.01;36.37;100902.94;5087174;29;20050;-65
2023/06/17 10:29:27;;;;;;;4.40;3.00;;;30.80;47.90;;;31.83;36.33;100893.16;5102910;28;20436;-65
2023/06/17 10:32:17;;;;;;;3.85;3.03;;;30.70;47.70;;;31.79;36.92;100894.25;5120545;28;20134;-65
2023/06/17 10:35:10;;;;;;;5.03;3.33;;;30.70;48.40;;;31.87;36.58;100908.19;5115693;28;20039;-65
2023/06/17 10:37:48;;;;;;;6.70;3.40;;;30.70;48.10;;;31.84;36.75;100895.75;5122882;28;20047;-65
2023/06/17 10:40:25;;;;;;;6.15;3.45;;;30.70;48.20;;;31.77;35.75;100885.34;5124073;28;20409;-65
2023/06/17 10:43:17;;;;;;;6.03;3.55;;;30.70;47.50;;;31.59;35.26;100889.88;5091579;29;20039;-65
2023/06/17 10:45:52;;;;;;;5.68;3.55;;;30.50;46.40;;;31.69;36.00;100887.56;5115968;28;20043;-65
2023/06/17 10:48:29;;;;;;;4.68;3.15;;;30.50;47.40;;;31.81;36.22;100886.94;5123726;28;20043;-66
2023/06/17 10:51:04;;;;;;;7.35;3.70;;;30.70;47.70;;;31.80;35.16;100879.81;5124438;28;20039;-66
2023/06/17 10:53:40;;;;;;;5.68;3.47;;;30.70;46.80;;;31.69;35.51;100876.78;5107032;28;20039;-66
2023/06/17 10:56:13;;;;;;;5.72;3.40;;;30.60;47.00;;;31.85;36.34;100878.63;5124009;28;20039;-65
2023/06/17 10:58:47;;;;;;;11.93;4.43;;;30.70;47.90;;;32.02;37.43;100869.69;5098924;29;20066;-65
2023/06/17 11:01:20;;;;;;;6.97;4.00;;;30.80;48.70;;;31.90;36.95;100875.72;5124130;28;20045;-67